Time;durP1;ratioP1;P1;durP2;ratioP2;P2;SDS_P1;SDS_P2;PMS_P1;PMS_P2;Temp;Humidity;BMP_temperature;BMP_pressure;BME280_temperature;BME280_humidity;BME280_pressure;Samples;Min_cycle;Max_cycle;Signal;HPM_P1;HPM_P2
2022/02/22 00:01:48;;;;;;;9.45;2.33;;;;;;;;;;5054644;28;20090;-77
2022/02/22 00:04:15;;;;;;;7.82;2.00;;;;;;;;;;5051567;28;20045;-77
2022/02/22 00:06:42;;;;;;;9.18;2.50;;;;;;;;;;5053578;28;20095;-76
2022/02/22 00:09:09;;;;;;;9.43;2.33;;;;;;;;;;5053638;28;20053;-77
2022/02/22 00:11:35;;;;;;;9.35;2.60;;;;;;;;;;5053988;28;20103;-77
2022/02/22 00:14:02;;;;;;;6.28;2.58;;;;;;;;;;5054567;28;20435;-76
2022/02/22 00:16:29;;;;;;;10.38;2.50;;;;;;;;;;5053602;28;20103;-77
2022/02/22 00:18:57;;;;;;;14.38;3.47;;;;;;;;;;5053549;28;20044;-77
2022/02/22 00:21:24;;;;;;;7.40;2.47;;;;;;;;;;5053937;28;20041;-77
2022/02/22 00:23:51;;;;;;;9.50;2.38;;;;;;;;;;5053585;28;20075;-77
2022/02/22 00:26:19;;;;;;;5.25;2.38;;;;;;;;;;5054063;28;20462;-77
2022/02/22 00:28:46;;;;;;;8.73;2.95;;;;;;;;;;5053366;28;20049;-77
2022/02/22 00:31:13;;;;;;;6.43;2.10;;;;;;;;;;5054194;28;20049;-76
2022/02/22 00:33:39;;;;;;;5.15;2.22;;;;;;;;;;5055199;28;20075;-77
2022/02/22 00:36:08;;;;;;;9.75;2.72;;;;;;;;;;5060494;28;20041;-78
2022/02/22 00:38:34;;;;;;;7.05;2.13;;;;;;;;;;5057019;28;20468;-78
2022/02/22 00:41:02;;;;;;;5.97;2.05;;;;;;;;;;5058238;28;20053;-77
2022/02/22 00:43:29;;;;;;;7.47;2.05;;;;;;;;;;5058511;28;20056;-76
2022/02/22 00:45:56;;;;;;;6.43;1.88;;;;;;;;;;5058893;28;20052;-77
2022/02/22 00:48:23;;;;;;;4.88;1.60;;;;;;;;;;5057694;28;20041;-78
2022/02/22 00:50:50;;;;;;;8.68;2.22;;;;;;;;;;5058189;28;20103;-78
2022/02/22 00:53:19;;;;;;;7.50;2.50;;;;;;;;;;5059517;28;20102;-78
2022/02/22 00:55:46;;;;;;;7.07;2.08;;;;;;;;;;5056035;28;20046;-77
2022/02/22 00:58:13;;;;;;;11.40;3.03;;;;;;;;;;5037791;28;20463;-78
2022/02/22 01:00:39;;;;;;;7.18;2.63;;;;;;;;;;5037625;28;20081;-78
2022/02/22 01:03:06;;;;;;;9.45;2.50;;;;;;;;;;5037542;28;20053;-76
2022/02/22 01:05:33;;;;;;;8.38;2.50;;;;;;;;;;5038415;28;20041;-78
2022/02/22 01:08:02;;;;;;;11.07;2.30;;;;;;;;;;5037290;28;20099;-78
2022/02/22 01:10:30;;;;;;;8.63;1.90;;;;;;;;;;5036356;28;20447;-77
2022/02/22 01:12:57;;;;;;;11.77;2.90;;;;;;;;;;5035826;28;20057;-78
2022/02/22 01:15:24;;;;;;;9.15;3.72;;;;;;;;;;5035903;28;20045;-78
2022/02/22 01:17:51;;;;;;;6.07;1.92;;;;;;;;;;5036067;28;20053;-78
2022/02/22 01:20:18;;;;;;;9.95;2.20;;;;;;;;;;5036140;28;20045;-78
2022/02/22 01:22:46;;;;;;;5.95;2.35;;;;;;;;;;5036142;28;20049;-78
2022/02/22 01:25:14;;;;;;;6.13;2.15;;;;;;;;;;5036128;28;20132;-78
2022/02/22 01:27:42;;;;;;;5.18;2.00;;;;;;;;;;5034852;28;20129;-76
2022/02/22 01:30:09;;;;;;;8.63;1.95;;;;;;;;;;5034300;28;20107;-76
2022/02/22 01:32:36;;;;;;;7.55;2.08;;;;;;;;;;5035347;28;20123;-77
2022/02/22 01:35:03;;;;;;;6.57;2.20;;;;;;;;;;5035260;28;20053;-77
2022/02/22 01:37:30;;;;;;;9.13;3.17;;;;;;;;;;5035495;28;20056;-77
2022/02/22 01:39:57;;;;;;;8.93;2.25;;;;;;;;;;5035057;28;20053;-76
2022/02/22 01:42:24;;;;;;;7.60;2.10;;;;;;;;;;5034593;28;20046;-77
2022/02/22 01:44:52;;;;;;;6.68;1.90;;;;;;;;;;5045336;28;20385;-77
2022/02/22 01:47:19;;;;;;;13.15;2.38;;;;;;;;;;5047410;28;20049;-76
2022/02/22 01:49:48;;;;;;;7.82;2.25;;;;;;;;;;5050487;28;20076;-76
2022/02/22 01:52:16;;;;;;;5.30;2.10;;;;;;;;;;5047755;28;20373;-76
2022/02/22 01:54:44;;;;;;;6.95;1.92;;;;;;;;;;5039695;28;20056;-77
2022/02/22 01:57:11;;;;;;;6.70;2.40;;;;;;;;;;5055422;28;20139;-77
2022/02/22 01:59:38;;;;;;;7.60;1.90;;;;;;;;;;5054592;28;20061;-77
2022/02/22 02:02:06;;;;;;;7.85;2.22;;;;;;;;;;5053818;28;20052;-77
2022/02/22 02:04:33;;;;;;;8.15;3.67;;;;;;;;;;5054067;28;20052;-77
2022/02/22 02:07:00;;;;;;;8.13;2.22;;;;;;;;;;5053585;28;20049;-77
2022/02/22 02:09:27;;;;;;;7.30;2.40;;;;;;;;;;5053421;28;20045;-76
2022/02/22 02:11:56;;;;;;;7.82;2.28;;;;;;;;;;5053561;28;20090;-77
2022/02/22 02:14:24;;;;;;;5.93;2.58;;;;;;;;;;5053601;28;20052;-76
2022/02/22 02:16:51;;;;;;;6.05;2.88;;;;;;;;;;5053990;28;20045;-76
2022/02/22 02:19:19;;;;;;;8.32;2.58;;;;;;;;;;5053644;28;20049;-77
2022/02/22 02:21:47;;;;;;;9.65;2.80;;;;;;;;;;5053446;28;20051;-77
2022/02/22 02:24:18;;;;;;;7.30;2.13;;;;;;;;;;5053318;28;20103;-77
2022/02/22 02:26:45;;;;;;;8.13;2.50;;;;;;;;;;5052947;28;20132;-77
2022/02/22 02:29:13;;;;;;;10.18;2.80;;;;;;;;;;5052830;28;20406;-77
2022/02/22 02:31:41;;;;;;;11.20;2.42;;;;;;;;;;5053434;28;20051;-77
2022/02/22 02:34:11;;;;;;;11.55;2.50;;;;;;;;;;5053301;28;20102;-77
2022/02/22 02:36:40;;;;;;;12.50;2.70;;;;;;;;;;5052888;28;20459;-77
2022/02/22 02:39:09;;;;;;;6.18;1.88;;;;;;;;;;5054269;28;20282;-76
2022/02/22 02:41:37;;;;;;;6.47;2.33;;;;;;;;;;5061660;28;20053;-77
2022/02/22 02:44:05;;;;;;;8.40;2.78;;;;;;;;;;5058427;28;20052;-76
2022/02/22 02:46:32;;;;;;;7.32;2.33;;;;;;;;;;5053487;28;20045;-77
2022/02/22 02:48:59;;;;;;;9.20;3.35;;;;;;;;;;5052907;28;20539;-77
2022/02/22 02:51:27;;;;;;;9.13;2.60;;;;;;;;;;5052568;28;20083;-76
2022/02/22 02:53:55;;;;;;;9.07;2.10;;;;;;;;;;5052867;28;20506;-77
2022/02/22 02:56:24;;;;;;;5.63;2.35;;;;;;;;;;5037672;28;20156;-76
2022/02/22 02:58:53;;;;;;;9.27;2.20;;;;;;;;;;5032807;28;20064;-76
2022/02/22 03:01:20;;;;;;;9.20;2.50;;;;;;;;;;5032781;28;20067;-77
2022/02/22 03:03:47;;;;;;;9.15;2.45;;;;;;;;;;5077355;22;20454;-61
2022/02/22 03:06:15;;;;;;;12.70;2.85;;;;;;;;;;5072863;28;20308;-60
2022/02/22 03:08:42;;;;;;;6.93;2.20;;;;;;;;;;5071780;28;20051;-61
2022/02/22 03:11:10;;;;;;;11.70;2.40;;;;;;;;;;5073075;28;20044;-60
2022/02/22 03:13:37;;;;;;;10.55;3.22;;;;;;;;;;5073336;28;20416;-61
2022/02/22 03:16:06;;;;;;;7.47;2.78;;;;;;;;;;5072614;28;20412;-60
2022/02/22 03:18:34;;;;;;;8.52;2.85;;;;;;;;;;5071871;28;20044;-61
2022/02/22 03:21:01;;;;;;;9.00;2.88;;;;;;;;;;5072111;28;20054;-60
2022/02/22 03:23:28;;;;;;;6.63;2.35;;;;;;;;;;5072245;28;20056;-60
2022/02/22 03:25:55;;;;;;;9.23;2.50;;;;;;;;;;5072301;28;20051;-60
2022/02/22 03:28:22;;;;;;;7.75;2.70;;;;;;;;;;5071984;28;20485;-60
2022/02/22 03:30:49;;;;;;;6.90;2.30;;;;;;;;;;5072232;28;20045;-61
2022/02/22 03:33:18;;;;;;;8.07;2.47;;;;;;;;;;5072206;28;20052;-60
2022/02/22 03:35:45;;;;;;;6.45;2.25;;;;;;;;;;5071933;28;20128;-59
2022/02/22 03:38:12;;;;;;;6.68;2.40;;;;;;;;;;5071941;28;20047;-60
2022/02/22 03:40:39;;;;;;;10.73;2.83;;;;;;;;;;5071957;28;20497;-60
2022/02/22 03:43:07;;;;;;;8.32;2.67;;;;;;;;;;5072115;28;20386;-61
2022/02/22 03:45:34;;;;;;;9.35;2.90;;;;;;;;;;5072143;28;20049;-60
2022/02/22 03:48:01;;;;;;;7.25;1.90;;;;;;;;;;5071579;28;20048;-61
2022/02/22 03:50:30;;;;;;;6.22;2.33;;;;;;;;;;5071713;28;20055;-61
2022/02/22 03:52:57;;;;;;;7.05;2.10;;;;;;;;;;5071870;28;20052;-61
2022/02/22 03:55:24;;;;;;;9.60;2.35;;;;;;;;;;5071837;28;20044;-61
2022/02/22 03:57:52;;;;;;;6.93;1.98;;;;;;;;;;5071703;28;20489;-61
2022/02/22 04:00:22;;;;;;;5.35;1.63;;;;;;;;;;5071964;28;20052;-60
2022/02/22 04:02:49;;;;;;;5.35;1.75;;;;;;;;;;5071953;28;20071;-61
2022/02/22 04:05:17;;;;;;;8.80;2.33;;;;;;;;;;5071626;28;20055;-61
2022/02/22 04:07:45;;;;;;;10.30;2.42;;;;;;;;;;5071485;28;20053;-60
2022/02/22 04:10:12;;;;;;;3.70;1.88;;;;;;;;;;5075427;28;20048;-61
2022/02/22 04:12:40;;;;;;;5.55;1.90;;;;;;;;;;5075825;28;20056;-61
2022/02/22 04:15:09;;;;;;;9.32;2.50;;;;;;;;;;5075728;28;20124;-60
2022/02/22 04:17:36;;;;;;;8.70;2.05;;;;;;;;;;5075198;28;20052;-61
2022/02/22 04:20:05;;;;;;;10.35;2.30;;;;;;;;;;5075647;28;20048;-61
2022/02/22 04:22:32;;;;;;;7.85;2.05;;;;;;;;;;5075537;28;20449;-58
2022/02/22 04:25:00;;;;;;;5.97;1.70;;;;;;;;;;5075385;28;20131;-62
2022/02/22 04:27:27;;;;;;;7.70;1.98;;;;;;;;;;5075311;28;20076;-60
2022/02/22 04:29:54;;;;;;;7.25;1.90;;;;;;;;;;5075295;28;20048;-59
2022/02/22 04:32:21;;;;;;;8.93;2.72;;;;;;;;;;5075364;28;20045;-60
2022/02/22 04:34:49;;;;;;;10.40;2.15;;;;;;;;;;5075403;28;20052;-60
2022/02/22 04:37:16;;;;;;;9.15;2.60;;;;;;;;;;5074964;28;20064;-62
2022/02/22 04:39:43;;;;;;;6.03;2.03;;;;;;;;;;5075465;28;20501;-61
2022/02/22 04:42:12;;;;;;;10.10;3.65;;;;;;;;;;5075179;28;20516;-59
2022/02/22 04:44:40;;;;;;;8.48;2.10;;;;;;;;;;5075475;28;20041;-61
2022/02/22 04:47:07;;;;;;;6.50;2.13;;;;;;;;;;5075185;28;20501;-61
2022/02/22 04:49:34;;;;;;;8.73;2.33;;;;;;;;;;5074975;28;20094;-61
2022/02/22 04:52:03;;;;;;;7.57;1.77;;;;;;;;;;5074925;28;20051;-61
2022/02/22 04:54:30;;;;;;;9.40;1.75;;;;;;;;;;5075072;28;20165;-61
2022/02/22 04:56:57;;;;;;;8.18;1.85;;;;;;;;;;5074612;28;20053;-61
2022/02/22 04:59:25;;;;;;;9.45;2.60;;;;;;;;;;5074883;28;20044;-60
2022/02/22 05:01:52;;;;;;;7.72;1.98;;;;;;;;;;5074520;28;20041;-60
2022/02/22 05:04:20;;;;;;;8.85;2.13;;;;;;;;;;5074562;28;20511;-60
2022/02/22 05:06:47;;;;;;;6.30;2.45;;;;;;;;;;5074711;28;20068;-60
2022/02/22 05:09:14;;;;;;;6.68;2.25;;;;;;;;;;5074525;28;20098;-61
2022/02/22 05:11:41;;;;;;;5.75;2.17;;;;;;;;;;5074538;28;20050;-61
2022/02/22 05:14:08;;;;;;;9.10;2.63;;;;;;;;;;5074616;28;20473;-62
2022/02/22 05:16:39;;;;;;;10.60;2.00;;;;;;;;;;5074497;28;20135;-61
2022/02/22 05:19:07;;;;;;;6.75;3.22;;;;;;;;;;5074155;28;20413;-59
2022/02/22 05:21:34;;;;;;;5.97;1.70;;;;;;;;;;5074328;28;20080;-61
2022/02/22 05:24:02;;;;;;;11.88;2.00;;;;;;;;;;5074332;28;20106;-61
2022/02/22 05:26:29;;;;;;;6.40;2.47;;;;;;;;;;5074408;28;20049;-61
2022/02/22 05:28:56;;;;;;;8.23;1.88;;;;;;;;;;5074210;28;20051;-61
2022/02/22 05:31:23;;;;;;;8.38;1.90;;;;;;;;;;5074257;28;20086;-61
2022/02/22 05:33:52;;;;;;;7.10;1.75;;;;;;;;;;5074528;28;20053;-61
2022/02/22 05:36:20;;;;;;;5.15;1.92;;;;;;;;;;5074060;28;20048;-60
2022/02/22 05:38:47;;;;;;;7.43;2.08;;;;;;;;;;5074082;28;20109;-61
2022/02/22 05:41:17;;;;;;;8.85;1.70;;;;;;;;;;5074021;28;20053;-61
2022/02/22 05:43:45;;;;;;;8.20;1.95;;;;;;;;;;5074081;28;20049;-61
2022/02/22 05:46:12;;;;;;;5.82;1.80;;;;;;;;;;5074017;28;20739;-61
2022/02/22 05:48:39;;;;;;;10.23;2.22;;;;;;;;;;5073947;28;20045;-61
2022/02/22 05:51:08;;;;;;;7.30;2.03;;;;;;;;;;5073719;28;20040;-61
2022/02/22 05:53:35;;;;;;;7.55;1.80;;;;;;;;;;5073929;28;20044;-60
2022/02/22 05:56:02;;;;;;;6.57;1.42;;;;;;;;;;5073736;28;20044;-61
2022/02/22 05:58:29;;;;;;;6.22;1.92;;;;;;;;;;5073676;28;20045;-60
2022/02/22 06:00:56;;;;;;;3.60;1.10;;;;;;;;;;5073847;28;20044;-60
2022/02/22 06:03:23;;;;;;;5.63;1.65;;;;;;;;;;5073722;28;20630;-61
2022/02/22 06:05:50;;;;;;;4.40;1.15;;;;;;;;;;5073741;28;20468;-61
2022/02/22 06:08:18;;;;;;;6.10;1.75;;;;;;;;;;5073578;28;20052;-62
2022/02/22 06:10:47;;;;;;;7.00;1.45;;;;;;;;;;5074191;28;20052;-61
2022/02/22 06:13:14;;;;;;;8.48;1.35;;;;;;;;;;5073954;28;20048;-61
2022/02/22 06:15:41;;;;;;;7.53;1.92;;;;;;;;;;5073412;28;20052;-61
2022/02/22 06:18:08;;;;;;;3.67;1.27;;;;;;;;;;5073316;28;20417;-60
2022/02/22 06:20:35;;;;;;;7.97;1.73;;;;;;;;;;5073229;28;20106;-61
2022/02/22 06:23:03;;;;;;;8.10;2.15;;;;;;;;;;5073463;28;20063;-61
2022/02/22 06:25:32;;;;;;;6.45;1.75;;;;;;;;;;5073246;28;20477;-61
2022/02/22 06:27:59;;;;;;;7.28;2.13;;;;;;;;;;5073213;28;20404;-60
2022/02/22 06:30:26;;;;;;;4.32;1.08;;;;;;;;;;5072771;28;20517;-62
2022/02/22 06:32:54;;;;;;;8.55;1.67;;;;;;;;;;5072573;28;20523;-63
2022/02/22 06:35:23;;;;;;;9.52;2.17;;;;;;;;;;5073078;28;20044;-61
2022/02/22 06:37:50;;;;;;;9.00;1.85;;;;;;;;;;5072641;28;20094;-62
2022/02/22 06:40:17;;;;;;;7.57;2.25;;;;;;;;;;5073744;28;20075;-59
2022/02/22 06:42:46;;;;;;;8.82;1.85;;;;;;;;;;5073905;28;20044;-62
2022/02/22 06:45:13;;;;;;;5.72;1.88;;;;;;;;;;5073623;28;20040;-61
2022/02/22 06:47:41;;;;;;;10.73;1.80;;;;;;;;;;5072680;28;20041;-61
2022/02/22 06:50:10;;;;;;;8.02;1.98;;;;;;;;;;5073371;28;20044;-61
2022/02/22 06:52:39;;;;;;;5.82;1.88;;;;;;;;;;5072848;28;20566;-61
2022/02/22 06:55:07;;;;;;;9.80;2.42;;;;;;;;;;5072706;28;20098;-61
2022/02/22 06:57:34;;;;;;;5.70;1.67;;;;;;;;;;5072795;28;20545;-62
2022/02/22 07:00:03;;;;;;;7.32;1.98;;;;;;;;;;5072883;28;20527;-62
2022/02/22 07:02:30;;;;;;;9.82;2.22;;;;;;;;;;5072310;28;20135;-64
2022/02/22 07:04:57;;;;;;;6.53;2.22;;;;;;;;;;5072468;28;20409;-62
2022/02/22 07:07:25;;;;;;;7.50;2.38;;;;;;;;;;5072199;28;20044;-62
2022/02/22 07:09:52;;;;;;;9.18;1.85;;;;;;;;;;5072423;28;20044;-60
2022/02/22 07:12:19;;;;;;;8.05;1.98;;;;;;;;;;5072194;28;20044;-62
2022/02/22 07:14:46;;;;;;;10.52;2.28;;;;;;;;;;5072299;28;20417;-62
2022/02/22 07:17:14;;;;;;;6.95;2.72;;;;;;;;;;5072303;28;20052;-62
2022/02/22 07:19:41;;;;;;;8.52;2.25;;;;;;;;;;5072150;28;20041;-63
2022/02/22 07:22:08;;;;;;;7.63;2.55;;;;;;;;;;5072160;28;20501;-62
2022/02/22 07:24:35;;;;;;;8.57;2.10;;;;;;;;;;5072413;28;20045;-62
2022/02/22 07:27:02;;;;;;;8.02;2.22;;;;;;;;;;5072037;28;20045;-61
2022/02/22 07:29:30;;;;;;;6.18;2.42;;;;;;;;;;5072303;28;20505;-60
2022/02/22 07:31:57;;;;;;;9.45;2.58;;;;;;;;;;5071978;28;20045;-61
2022/02/22 07:34:26;;;;;;;9.82;2.33;;;;;;;;;;5072163;28;20045;-61
2022/02/22 07:36:53;;;;;;;7.53;2.70;;;;;;;;;;5072346;28;20048;-61
2022/02/22 07:39:20;;;;;;;7.63;2.47;;;;;;;;;;5071875;28;20049;-62
2022/02/22 07:41:47;;;;;;;5.88;2.58;;;;;;;;;;5072083;28;20048;-62
2022/02/22 07:44:14;;;;;;;7.40;2.38;;;;;;;;;;5071795;28;20062;-61
2022/02/22 07:46:41;;;;;;;7.45;2.28;;;;;;;;;;5071900;28;20045;-60
2022/02/22 07:49:08;;;;;;;11.30;2.55;;;;;;;;;;5071684;28;20044;-62
2022/02/22 07:51:36;;;;;;;6.10;2.38;;;;;;;;;;5071731;28;20417;-62
2022/02/22 07:54:03;;;;;;;10.10;2.80;;;;;;;;;;5071741;28;20051;-61
2022/02/22 07:56:31;;;;;;;7.68;2.05;;;;;;;;;;5071815;28;20541;-62
2022/02/22 07:58:58;;;;;;;8.02;2.60;;;;;;;;;;5071809;28;20416;-62
2022/02/22 08:01:25;;;;;;;8.35;2.30;;;;;;;;;;5071709;28;20071;-62
2022/02/22 08:03:52;;;;;;;7.18;1.95;;;;;;;;;;5071478;28;20051;-62
2022/02/22 08:06:19;;;;;;;5.93;2.25;;;;;;;;;;5070900;28;20136;-62
2022/02/22 08:08:47;;;;;;;7.03;2.50;;;;;;;;;;5069282;28;20516;-62
2022/02/22 08:11:15;;;;;;;8.18;2.60;;;;;;;;;;5069818;28;20052;-63
2022/02/22 08:13:42;;;;;;;6.82;2.10;;;;;;;;;;5069773;28;20040;-62
2022/02/22 08:16:09;;;;;;;10.23;2.70;;;;;;;;;;5069006;28;20044;-63
2022/02/22 08:18:35;;;;;;;8.40;2.15;;;;;;;;;;5068521;28;20265;-62
2022/02/22 08:21:03;;;;;;;8.57;2.90;;;;;;;;;;5069149;28;20119;-62
2022/02/22 08:23:31;;;;;;;7.35;2.45;;;;;;;;;;5068827;28;20048;-62
2022/02/22 08:26:01;;;;;;;9.05;1.92;;;;;;;;;;5068989;28;20049;-62
2022/02/22 08:28:28;;;;;;;10.43;2.38;;;;;;;;;;5068352;28;20102;-62
2022/02/22 08:30:56;;;;;;;6.82;1.90;;;;;;;;;;5068382;28;20552;-62
2022/02/22 08:33:23;;;;;;;10.70;2.60;;;;;;;;;;5068758;28;20059;-62
2022/02/22 08:35:50;;;;;;;6.22;2.05;;;;;;;;;;5068333;28;20049;-62
2022/02/22 08:38:17;;;;;;;6.65;1.83;;;;;;;;;;5068858;28;20049;-62
2022/02/22 08:40:45;;;;;;;7.07;1.83;;;;;;;;;;5068936;28;20486;-63
2022/02/22 08:43:14;;;;;;;4.88;1.55;;;;;;;;;;5069022;28;20135;-61
2022/02/22 08:45:43;;;;;;;5.45;2.00;;;;;;;;;;5069305;28;20504;-64
2022/02/22 08:48:10;;;;;;;11.52;2.03;;;;;;;;;;5068892;28;20052;-63
2022/02/22 08:50:37;;;;;;;8.25;1.70;;;;;;;;;;5069135;28;20488;-62
2022/02/22 08:53:05;;;;;;;6.03;1.48;;;;;;;;;;5069326;28;20508;-62
2022/02/22 08:55:32;;;;;;;11.07;2.55;;;;;;;;;;5071853;28;20044;-63
2022/02/22 08:57:59;;;;;;;10.65;2.30;;;;;;;;;;5072442;28;20070;-62
2022/02/22 09:00:28;;;;;;;9.40;2.00;;;;;;;;;;5072668;28;20519;-62
2022/02/22 09:02:58;;;;;;;7.43;2.17;;;;;;;;;;5072545;28;20525;-62
2022/02/22 09:05:26;;;;;;;5.47;1.95;;;;;;;;;;5072375;28;20048;-62
2022/02/22 09:07:53;;;;;;;6.75;2.10;;;;;;;;;;5072208;28;20083;-63
2022/02/22 09:10:21;;;;;;;7.35;1.85;;;;;;;;;;5072387;28;20049;-62
2022/02/22 09:12:48;;;;;;;7.15;1.77;;;;;;;;;;5072661;28;20113;-62
2022/02/22 09:15:17;;;;;;;6.10;2.50;;;;;;;;;;5072354;28;20048;-62
2022/02/22 09:17:49;;;;;;;5.40;1.67;;;;;;;;;;5072039;28;20052;-62
2022/02/22 09:20:18;;;;;;;3.72;1.60;;;;;;;;;;5072265;28;20055;-63
2022/02/22 09:22:45;;;;;;;6.32;1.80;;;;;;;;;;5072565;28;20053;-62
2022/02/22 09:25:13;;;;;;;5.28;1.70;;;;;;;;;;5072102;28;20052;-65
2022/02/22 09:27:42;;;;;;;8.52;1.90;;;;;;;;;;5071957;28;20052;-62
2022/02/22 09:30:10;;;;;;;7.25;2.08;;;;;;;;;;5072541;28;20086;-62
2022/02/22 09:32:37;;;;;;;6.22;1.92;;;;;;;;;;5071993;28;20040;-63
2022/02/22 09:35:07;;;;;;;7.68;2.50;;;;;;;;;;5071827;28;20048;-62
2022/02/22 09:37:34;;;;;;;6.28;2.10;;;;;;;;;;5071878;28;20157;-63
2022/02/22 09:40:02;;;;;;;8.02;2.65;;;;;;;;;;5071904;28;20049;-63
2022/02/22 09:42:29;;;;;;;6.35;2.60;;;;;;;;;;5071866;28;20055;-63
2022/02/22 09:44:56;;;;;;;7.95;2.42;;;;;;;;;;5071998;28;20131;-62
2022/02/22 09:47:23;;;;;;;6.68;2.33;;;;;;;;;;5071523;28;20045;-63
2022/02/22 09:49:50;;;;;;;4.80;2.20;;;;;;;;;;5071865;28;20174;-63
2022/02/22 09:52:18;;;;;;;7.40;2.85;;;;;;;;;;5071782;28;20466;-63
2022/02/22 09:54:46;;;;;;;8.07;2.65;;;;;;;;;;5071567;28;20048;-63
2022/02/22 09:57:12;;;;;;;10.68;2.65;;;;;;;;;;5071155;28;20699;-63
2022/02/22 09:59:40;;;;;;;5.40;2.22;;;;;;;;;;5071705;28;20058;-61
2022/02/22 10:02:07;;;;;;;9.20;3.40;;;;;;;;;;5071553;28;20063;-63
2022/02/22 10:04:42;;;;;;;7.45;2.00;;;;;;;;;;5071272;28;20131;-63
2022/02/22 10:07:09;;;;;;;6.43;2.22;;;;;;;;;;5071178;28;20055;-63
2022/02/22 10:09:50;;;;;;;11.27;2.38;;;;;;;;;;5071267;28;20053;-62
2022/02/22 10:12:29;;;;;;;6.47;1.73;;;;;;;;;;5071529;28;20074;-61
2022/02/22 10:14:58;;;;;;;9.88;2.20;;;;;;;;;;5072292;28;20048;-63
2022/02/22 10:17:26;;;;;;;7.63;2.17;;;;;;;;;;5072538;28;20056;-63
2022/02/22 10:20:01;;;;;;;8.43;2.03;;;;;;;;;;5071815;28;20048;-62
2022/02/22 10:22:28;;;;;;;8.20;2.17;;;;;;;;;;5072132;28;20264;-63
2022/02/22 10:25:14;;;;;;;9.20;2.95;;;;;;;;;;5071025;28;20128;-63
2022/02/22 10:27:43;;;;;;;5.60;2.30;;;;;;;;;;5070731;28;20049;-64
2022/02/22 10:30:28;;;;;;;8.25;2.95;;;;;;;;;;5069776;28;20101;-65
2022/02/22 10:32:56;;;;;;;4.97;2.15;;;;;;;;;;5071038;28;20132;-65
2022/02/22 10:35:34;;;;;;;8.40;1.90;;;;;;;;;;5070882;28;20136;-63
2022/02/22 10:38:12;;;;;;;7.40;1.95;;;;;;;;;;5070637;28;20044;-63
2022/02/22 10:40:41;;;;;;;7.45;1.65;;;;;;;;;;5070904;28;20485;-64
2022/02/22 10:43:09;;;;;;;6.35;1.95;;;;;;;;;;5070305;28;20052;-63
2022/02/22 10:45:36;;;;;;;6.78;2.15;;;;;;;;;;5070734;28;20095;-64
2022/02/22 10:48:03;;;;;;;8.65;1.80;;;;;;;;;;5069440;28;20045;-64
2022/02/22 10:50:31;;;;;;;6.68;2.28;;;;;;;;;;5070540;28;20048;-63
2022/02/22 10:52:59;;;;;;;9.27;2.30;;;;;;;;;;5070586;28;20045;-64
2022/02/22 10:55:26;;;;;;;6.03;1.85;;;;;;;;;;5070206;28;20045;-65
2022/02/22 10:57:54;;;;;;;7.97;2.28;;;;;;;;;;5069237;28;20132;-64
2022/02/22 11:00:21;;;;;;;6.97;1.90;;;;;;;;;;5070618;28;20044;-64
2022/02/22 11:02:49;;;;;;;7.95;2.10;;;;;;;;;;5070399;28;20053;-64
2022/02/22 11:05:16;;;;;;;9.15;2.67;;;;;;;;;;5070269;28;20547;-63
2022/02/22 11:07:51;;;;;;;6.63;2.63;;;;;;;;;;5069962;28;20497;-63
2022/02/22 11:10:21;;;;;;;7.20;2.55;;;;;;;;;;5070310;28;20102;-64
2022/02/22 11:12:59;;;;;;;7.40;2.40;;;;;;;;;;5070204;28;20420;-63
2022/02/22 11:15:37;;;;;;;7.57;2.20;;;;;;;;;;5070145;28;20427;-64
2022/02/22 11:18:16;;;;;;;7.20;1.92;;;;;;;;;;5069311;28;20059;-64
2022/02/22 11:20:44;;;;;;;8.07;2.70;;;;;;;;;;5070122;28;20055;-64
2022/02/22 11:23:15;;;;;;;10.10;2.60;;;;;;;;;;5070478;28;20054;-64
2022/02/22 11:25:46;;;;;;;7.25;1.88;;;;;;;;;;5070304;28;20052;-65
2022/02/22 11:28:14;;;;;;;4.35;1.73;;;;;;;;;;5069722;28;20052;-63
2022/02/22 11:30:41;;;;;;;9.43;1.80;;;;;;;;;;5070128;28;20049;-63
2022/02/22 11:33:13;;;;;;;8.57;2.00;;;;;;;;;;5069696;28;20520;-64
2022/02/22 11:35:53;;;;;;;7.88;1.92;;;;;;;;;;5070350;28;20109;-64
2022/02/22 11:38:20;;;;;;;4.13;1.88;;;;;;;;;;5070010;28;20131;-63
2022/02/22 11:40:50;;;;;;;8.93;2.08;;;;;;;;;;5070331;28;20237;-66
2022/02/22 11:43:20;;;;;;;4.43;1.65;;;;;;;;;;5070291;28;20053;-62
2022/02/22 11:45:49;;;;;;;8.10;1.85;;;;;;;;;;5070740;28;20083;-65
2022/02/22 11:48:19;;;;;;;3.97;1.58;;;;;;;;;;5070505;28;20553;-62
2022/02/22 11:50:49;;;;;;;8.30;1.60;;;;;;;;;;5070328;28;20080;-63
2022/02/22 11:53:21;;;;;;;5.00;1.40;;;;;;;;;;5069882;28;20041;-63
2022/02/22 11:55:50;;;;;;;7.05;1.35;;;;;;;;;;5069849;28;20059;-62
2022/02/22 11:58:22;;;;;;;5.13;1.50;;;;;;;;;;5069613;28;20041;-63
2022/02/22 12:00:51;;;;;;;5.78;1.85;;;;;;;;;;5069963;28;20048;-63
2022/02/22 12:03:21;;;;;;;7.32;1.88;;;;;;;;;;5070091;28;20410;-64
2022/02/22 12:05:54;;;;;;;5.63;2.25;;;;;;;;;;5069999;28;20537;-63
2022/02/22 12:08:22;;;;;;;7.47;2.10;;;;;;;;;;5069594;28;20041;-62
2022/02/22 12:10:52;;;;;;;5.25;1.40;;;;;;;;;;5069769;28;20472;-63
2022/02/22 12:13:22;;;;;;;9.57;1.85;;;;;;;;;;5069325;28;20047;-62
2022/02/22 12:15:50;;;;;;;8.52;1.75;;;;;;;;;;5069861;28;20409;-63
2022/02/22 12:18:18;;;;;;;7.93;2.47;;;;;;;;;;5069736;28;20048;-63
2022/02/22 12:20:46;;;;;;;6.65;2.28;;;;;;;;;;5069806;28;20055;-62
2022/02/22 12:23:18;;;;;;;6.90;2.00;;;;;;;;;;5069714;28;20136;-63
2022/02/22 12:25:46;;;;;;;5.30;1.75;;;;;;;;;;5069501;28;20044;-63
2022/02/22 12:28:13;;;;;;;8.68;2.10;;;;;;;;;;5069319;28;20053;-63
2022/02/22 12:30:43;;;;;;;8.52;2.30;;;;;;;;;;5072623;28;20052;-62
2022/02/22 12:33:10;;;;;;;9.33;2.00;;;;;;;;;;5073282;28;20053;-63
2022/02/22 12:35:38;;;;;;;6.18;2.22;;;;;;;;;;5073629;28;20119;-64
2022/02/22 12:38:17;;;;;;;7.75;3.10;;;;;;;;;;5073317;28;20045;-62
2022/02/22 12:40:44;;;;;;;6.82;2.47;;;;;;;;;;5072867;28;20098;-63
2022/02/22 12:43:13;;;;;;;8.02;2.30;;;;;;;;;;5073112;28;20056;-63
2022/02/22 12:45:46;;;;;;;8.30;3.38;;;;;;;;;;5073308;28;20044;-62
2022/02/22 12:48:16;;;;;;;9.48;3.38;;;;;;;;;;5072903;28;20048;-62
2022/02/22 12:50:43;;;;;;;5.40;2.05;;;;;;;;;;5073081;28;20076;-64
2022/02/22 12:53:10;;;;;;;7.18;2.22;;;;;;;;;;5072879;28;20045;-63
2022/02/22 12:55:46;;;;;;;7.88;2.65;;;;;;;;;;5073164;28;20052;-62
2022/02/22 12:58:13;;;;;;;9.05;2.75;;;;;;;;;;5073058;28;20412;-62
2022/02/22 13:00:42;;;;;;;6.30;2.17;;;;;;;;;;5073079;28;20279;-63
2022/02/22 13:03:12;;;;;;;6.60;2.67;;;;;;;;;;5072969;28;20066;-64
2022/02/22 13:05:41;;;;;;;6.45;2.22;;;;;;;;;;5073063;28;20051;-63
2022/02/22 13:08:10;;;;;;;11.93;2.50;;;;;;;;;;5072875;28;20445;-62
2022/02/22 13:10:42;;;;;;;12.45;2.28;;;;;;;;;;5072770;28;20064;-63
2022/02/22 13:13:10;;;;;;;10.70;2.35;;;;;;;;;;5072626;28;20147;-63
2022/02/22 13:15:37;;;;;;;9.10;3.28;;;;;;;;;;5073229;28;20571;-63
2022/02/22 13:18:16;;;;;;;6.65;2.03;;;;;;;;;;5072880;28;20048;-63
2022/02/22 13:20:45;;;;;;;8.40;2.10;;;;;;;;;;5072516;28;20132;-63
2022/02/22 13:23:13;;;;;;;7.20;2.15;;;;;;;;;;5072952;28;20139;-63
2022/02/22 13:25:41;;;;;;;6.30;2.00;;;;;;;;;;5072408;28;20076;-63
2022/02/22 13:28:09;;;;;;;6.20;2.10;;;;;;;;;;5072452;28;20693;-63
2022/02/22 13:30:39;;;;;;;8.48;2.50;;;;;;;;;;5072530;28;20045;-63
2022/02/22 13:33:08;;;;;;;5.53;1.60;;;;;;;;;;5072438;28;20051;-63
2022/02/22 13:35:37;;;;;;;3.80;1.50;;;;;;;;;;5072554;28;20087;-64
2022/02/22 13:38:16;;;;;;;4.45;1.55;;;;;;;;;;5072276;28;20040;-61
2022/02/22 13:40:43;;;;;;;6.93;1.60;;;;;;;;;;5071946;28;20110;-63
2022/02/22 13:43:13;;;;;;;3.75;1.77;;;;;;;;;;5072145;28;20055;-63
2022/02/22 13:45:42;;;;;;;7.03;1.90;;;;;;;;;;5072359;28;20045;-63
2022/02/22 13:48:10;;;;;;;4.32;1.63;;;;;;;;;;5073239;28;20131;-63
2022/02/22 13:50:39;;;;;;;5.25;1.55;;;;;;;;;;5073700;28;20076;-61
2022/02/22 13:53:08;;;;;;;5.80;2.03;;;;;;;;;;5072750;28;20139;-62
2022/02/22 13:55:47;;;;;;;7.07;1.90;;;;;;;;;;5072634;28;20075;-62
2022/02/22 13:58:20;;;;;;;5.15;2.05;;;;;;;;;;5071850;28;20044;-64
2022/02/22 14:00:49;;;;;;;5.38;2.30;;;;;;;;;;5071989;28;20051;-63
2022/02/22 14:03:16;;;;;;;5.93;2.00;;;;;;;;;;5071931;28;20049;-63
2022/02/22 14:05:44;;;;;;;9.05;2.15;;;;;;;;;;5072022;28;20123;-63
2022/02/22 14:08:12;;;;;;;8.90;2.40;;;;;;;;;;5071855;28;20045;-62
2022/02/22 14:10:41;;;;;;;5.03;2.08;;;;;;;;;;5071869;28;20052;-62
2022/02/22 14:13:08;;;;;;;4.82;2.10;;;;;;;;;;5071240;28;20041;-61
2022/02/22 14:15:35;;;;;;;8.68;2.50;;;;;;;;;;5071450;28;20059;-64
2022/02/22 14:18:05;;;;;;;7.32;2.25;;;;;;;;;;5071379;28;20055;-62
2022/02/22 14:20:32;;;;;;;6.85;2.38;;;;;;;;;;5071260;28;20112;-61
2022/02/22 14:23:01;;;;;;;7.05;2.22;;;;;;;;;;5071257;28;20048;-63
2022/02/22 14:25:31;;;;;;;5.45;1.85;;;;;;;;;;5071434;28;20052;-64
2022/02/22 14:27:59;;;;;;;7.55;2.05;;;;;;;;;;5071469;28;20048;-63
2022/02/22 14:30:28;;;;;;;8.73;2.10;;;;;;;;;;5071237;28;20169;-63
2022/02/22 14:32:55;;;;;;;8.82;2.55;;;;;;;;;;5071219;28;20048;-63
2022/02/22 14:35:22;;;;;;;8.10;2.67;;;;;;;;;;5071487;28;20066;-63
2022/02/22 14:37:49;;;;;;;6.93;2.70;;;;;;;;;;5071233;28;20295;-61
2022/02/22 14:40:17;;;;;;;6.18;2.40;;;;;;;;;;5071038;28;20048;-62
2022/02/22 14:42:44;;;;;;;5.97;2.38;;;;;;;;;;5071390;28;20524;-62
2022/02/22 14:45:12;;;;;;;11.25;2.53;;;;;;;;;;5070902;28;20056;-63
2022/02/22 14:47:39;;;;;;;8.32;2.88;;;;;;;;;;5070943;28;20494;-62